Turner Valley, Canada
Current Conditions -  °F | °C
As of 8:00 PM on Sunday 23 Nov 2014 (Local Time) from CYBW Reporting Station
Broken Clouds Broken Clouds  
Wind Chill: 20°   Ceiling: 14000
Heat Index: 27°   Visibility: 9mi
Dew Point: 18°   Wind: 6mph
Humidity: 69%   Direction: 300°WNW
Pressure: 29.71"   Gusts: NA
Location:  50.68°N, 114.27°W
Report Text: CYBW 240300Z AUTO 30005KT 9SM FEW120 BKN140 BKN160 M03/M08 A2971 RMK SLP122
Loading
Personal Weather Stations






























Interactive Weather Map New forecast layout! Learn more

10-Day Weather Forecast

Advertisements
Track Severe Weather on mobile